Terminal Aerodrome Forecast
Issued by NWS

Home | Current Version | Previous Version | Text Only | Print | Product List | Glossary On
Versions: 1 2 3 4 5 6 7 8 9 10 11 12 13 14
000
FTUS44 KJAN 302325
TAFHKS
TAF
KHKS 302325Z 0100/0124 23015G23KT P6SM -RA VCSH SCT040 SCT080
      BKN100
     FM010200 21004KT P6SM FEW250
     FM011500 23006KT P6SM VCSH BKN250=

USA.gov is the U.S. government's official web portal to all federal, state and local government web resources and services.